sensor_id;sensor_type;location;lat;lon;timestamp;temperature;humidity
22578;DHT22;11455;52.390;13.028;2023-04-03T00:01:59;5.00;1.00
22578;DHT22;11455;52.390;13.028;2023-04-03T00:04:24;5.00;1.00
22578;DHT22;11455;52.390;13.028;2023-04-03T00:06:50;4.90;1.00
22578;DHT22;11455;52.390;13.028;2023-04-03T00:09:16;4.90;1.00
22578;DHT22;11455;52.390;13.028;2023-04-03T00:11:42;5.00;1.00
22578;DHT22;11455;52.390;13.028;2023-04-03T00:14:08;5.00;1.00
22578;DHT22;11455;52.390;13.028;2023-04-03T00:16:36;5.00;1.00
22578;DHT22;11455;52.390;13.028;2023-04-03T00:19:02;5.00;1.00
22578;DHT22;11455;52.390;13.028;2023-04-03T00:21:27;4.90;1.00
22578;DHT22;11455;52.390;13.028;2023-04-03T00:23:53;5.00;1.00
22578;DHT22;11455;52.390;13.028;2023-04-03T00:26:18;4.90;1.00
22578;DHT22;11455;52.390;13.028;2023-04-03T00:28:45;4.90;1.00
22578;DHT22;11455;52.390;13.028;2023-04-03T00:31:10;4.90;1.00
22578;DHT22;11455;52.390;13.028;2023-04-03T00:33:39;4.90;1.00
22578;DHT22;11455;52.390;13.028;2023-04-03T00:36:05;4.90;1.00
22578;DHT22;11455;52.390;13.028;2023-04-03T00:38:31;4.90;1.00
22578;DHT22;11455;52.390;13.028;2023-04-03T00:40:59;4.90;1.00
22578;DHT22;11455;52.390;13.028;2023-04-03T00:43:26;4.90;1.00
22578;DHT22;11455;52.390;13.028;2023-04-03T00:45:55;5.00;1.00
22578;DHT22;11455;52.390;13.028;2023-04-03T00:48:23;5.00;1.00
22578;DHT22;11455;52.390;13.028;2023-04-03T00:50:50;5.00;1.00
22578;DHT22;11455;52.390;13.028;2023-04-03T00:53:21;4.80;1.00
22578;DHT22;11455;52.390;13.028;2023-04-03T00:55:48;4.80;1.00
22578;DHT22;11455;52.390;13.028;2023-04-03T00:58:15;4.80;1.00
22578;DHT22;11455;52.390;13.028;2023-04-03T01:00:42;4.80;1.00
22578;DHT22;11455;52.390;13.028;2023-04-03T01:03:09;4.80;1.00
22578;DHT22;11455;52.390;13.028;2023-04-03T01:05:37;4.80;1.00
22578;DHT22;11455;52.390;13.028;2023-04-03T01:08:03;4.80;1.00
22578;DHT22;11455;52.390;13.028;2023-04-03T01:10:29;4.90;1.00
22578;DHT22;11455;52.390;13.028;2023-04-03T01:12:56;4.90;1.00
22578;DHT22;11455;52.390;13.028;2023-04-03T01:15:23;4.90;1.00
22578;DHT22;11455;52.390;13.028;2023-04-03T01:17:58;4.70;1.00
22578;DHT22;11455;52.390;13.028;2023-04-03T01:25:40;4.70;1.00
22578;DHT22;11455;52.390;13.028;2023-04-03T01:28:09;4.70;1.00
22578;DHT22;11455;52.390;13.028;2023-04-03T01:30:37;4.70;1.00
22578;DHT22;11455;52.390;13.028;2023-04-03T01:33:06;4.60;1.00
22578;DHT22;11455;52.390;13.028;2023-04-03T01:35:32;4.60;1.00
22578;DHT22;11455;52.390;13.028;2023-04-03T01:37:58;4.60;1.00
22578;DHT22;11455;52.390;13.028;2023-04-03T01:40:26;4.50;1.00
22578;DHT22;11455;52.390;13.028;2023-04-03T01:42:51;4.60;1.00
22578;DHT22;11455;52.390;13.028;2023-04-03T01:45:17;4.60;1.00
22578;DHT22;11455;52.390;13.028;2023-04-03T01:47:43;4.60;1.00
22578;DHT22;11455;52.390;13.028;2023-04-03T01:50:11;4.70;1.00
22578;DHT22;11455;52.390;13.028;2023-04-03T01:52:36;4.60;1.00
22578;DHT22;11455;52.390;13.028;2023-04-03T01:55:02;4.50;1.00
22578;DHT22;11455;52.390;13.028;2023-04-03T01:57:28;4.40;1.00
22578;DHT22;11455;52.390;13.028;2023-04-03T01:59:54;4.40;1.00
22578;DHT22;11455;52.390;13.028;2023-04-03T02:02:19;4.40;1.00
22578;DHT22;11455;52.390;13.028;2023-04-03T02:04:45;4.30;1.00
22578;DHT22;11455;52.390;13.028;2023-04-03T02:07:11;4.40;1.00
22578;DHT22;11455;52.390;13.028;2023-04-03T02:09:37;4.30;1.00
22578;DHT22;11455;52.390;13.028;2023-04-03T02:12:02;4.30;1.00
22578;DHT22;11455;52.390;13.028;2023-04-03T02:14:29;4.30;1.00
22578;DHT22;11455;52.390;13.028;2023-04-03T02:16:55;4.30;1.00
22578;DHT22;11455;52.390;13.028;2023-04-03T02:19:22;4.30;1.00
22578;DHT22;11455;52.390;13.028;2023-04-03T02:21:48;4.20;1.00
22578;DHT22;11455;52.390;13.028;2023-04-03T02:24:14;4.20;1.00
22578;DHT22;11455;52.390;13.028;2023-04-03T02:26:40;4.20;1.00
22578;DHT22;11455;52.390;13.028;2023-04-03T02:29:05;4.20;1.00
22578;DHT22;11455;52.390;13.028;2023-04-03T02:31:31;4.10;1.00
22578;DHT22;11455;52.390;13.028;2023-04-03T02:33:58;4.10;1.00
22578;DHT22;11455;52.390;13.028;2023-04-03T02:36:24;4.10;1.00
22578;DHT22;11455;52.390;13.028;2023-04-03T02:38:54;4.10;1.00
22578;DHT22;11455;52.390;13.028;2023-04-03T02:41:20;4.10;1.00
22578;DHT22;11455;52.390;13.028;2023-04-03T02:43:47;4.10;1.00
22578;DHT22;11455;52.390;13.028;2023-04-03T02:46:12;4.10;1.00
22578;DHT22;11455;52.390;13.028;2023-04-03T02:48:40;4.10;1.00
22578;DHT22;11455;52.390;13.028;2023-04-03T02:51:06;4.10;1.00
22578;DHT22;11455;52.390;13.028;2023-04-03T02:53:32;4.00;1.00
22578;DHT22;11455;52.390;13.028;2023-04-03T02:56:02;4.00;1.00
22578;DHT22;11455;52.390;13.028;2023-04-03T02:58:28;3.90;1.00
22578;DHT22;11455;52.390;13.028;2023-04-03T03:00:56;3.80;1.00
22578;DHT22;11455;52.390;13.028;2023-04-03T03:03:22;3.80;1.00
22578;DHT22;11455;52.390;13.028;2023-04-03T03:05:48;3.80;1.00
22578;DHT22;11455;52.390;13.028;2023-04-03T03:08:14;3.90;1.00
22578;DHT22;11455;52.390;13.028;2023-04-03T03:10:40;3.90;1.00
22578;DHT22;11455;52.390;13.028;2023-04-03T03:13:06;3.80;1.00
22578;DHT22;11455;52.390;13.028;2023-04-03T03:15:32;3.70;1.00
22578;DHT22;11455;52.390;13.028;2023-04-03T03:18:00;3.70;1.00
22578;DHT22;11455;52.390;13.028;2023-04-03T03:20:26;3.70;1.00
22578;DHT22;11455;52.390;13.028;2023-04-03T03:22:52;3.70;1.00
22578;DHT22;11455;52.390;13.028;2023-04-03T03:25:18;3.70;1.00
22578;DHT22;11455;52.390;13.028;2023-04-03T03:27:43;3.70;1.00
22578;DHT22;11455;52.390;13.028;2023-04-03T03:30:12;3.60;1.00
22578;DHT22;11455;52.390;13.028;2023-04-03T03:32:37;3.60;1.00
22578;DHT22;11455;52.390;13.028;2023-04-03T03:35:03;3.60;1.00
22578;DHT22;11455;52.390;13.028;2023-04-03T03:37:29;3.50;1.00
22578;DHT22;11455;52.390;13.028;2023-04-03T03:39:55;3.50;1.00
22578;DHT22;11455;52.390;13.028;2023-04-03T03:42:23;3.50;1.00
22578;DHT22;11455;52.390;13.028;2023-04-03T03:44:49;3.50;1.00
22578;DHT22;11455;52.390;13.028;2023-04-03T03:47:18;3.50;1.00
22578;DHT22;11455;52.390;13.028;2023-04-03T03:49:44;3.50;1.00
22578;DHT22;11455;52.390;13.028;2023-04-03T03:52:10;3.50;1.00
22578;DHT22;11455;52.390;13.028;2023-04-03T03:54:36;3.40;1.00
22578;DHT22;11455;52.390;13.028;2023-04-03T03:57:02;3.30;1.00
22578;DHT22;11455;52.390;13.028;2023-04-03T03:59:29;3.30;1.00
22578;DHT22;11455;52.390;13.028;2023-04-03T04:01:55;3.30;1.00
22578;DHT22;11455;52.390;13.028;2023-04-03T04:04:21;3.20;1.00
22578;DHT22;11455;52.390;13.028;2023-04-03T04:06:48;3.30;1.00
22578;DHT22;11455;52.390;13.028;2023-04-03T04:09:14;3.30;1.00
22578;DHT22;11455;52.390;13.028;2023-04-03T04:11:40;3.30;1.00
22578;DHT22;11455;52.390;13.028;2023-04-03T04:14:06;3.20;1.00
22578;DHT22;11455;52.390;13.028;2023-04-03T04:16:32;3.20;1.00
22578;DHT22;11455;52.390;13.028;2023-04-03T04:19:04;3.30;1.00
22578;DHT22;11455;52.390;13.028;2023-04-03T04:21:30;3.30;1.00
22578;DHT22;11455;52.390;13.028;2023-04-03T04:23:56;3.30;1.00
22578;DHT22;11455;52.390;13.028;2023-04-03T04:26:23;3.30;1.00
22578;DHT22;11455;52.390;13.028;2023-04-03T04:28:49;3.30;1.00
22578;DHT22;11455;52.390;13.028;2023-04-03T04:31:17;3.30;1.00
22578;DHT22;11455;52.390;13.028;2023-04-03T04:33:45;3.30;1.00
22578;DHT22;11455;52.390;13.028;2023-04-03T04:36:13;3.30;1.00
22578;DHT22;11455;52.390;13.028;2023-04-03T04:38:41;3.30;1.00
22578;DHT22;11455;52.390;13.028;2023-04-03T04:41:07;3.30;1.00
22578;DHT22;11455;52.390;13.028;2023-04-03T04:43:36;3.40;1.00
22578;DHT22;11455;52.390;13.028;2023-04-03T04:46:06;3.40;1.00
22578;DHT22;11455;52.390;13.028;2023-04-03T04:48:39;3.40;1.00
22578;DHT22;11455;52.390;13.028;2023-04-03T04:51:06;3.30;1.00
22578;DHT22;11455;52.390;13.028;2023-04-03T04:53:35;3.30;1.00
22578;DHT22;11455;52.390;13.028;2023-04-03T04:56:01;3.20;1.00
22578;DHT22;11455;52.390;13.028;2023-04-03T04:58:29;3.20;1.00
22578;DHT22;11455;52.390;13.028;2023-04-03T05:00:59;3.10;1.00
22578;DHT22;11455;52.390;13.028;2023-04-03T05:03:25;3.10;1.00
22578;DHT22;11455;52.390;13.028;2023-04-03T05:05:51;3.10;1.00
22578;DHT22;11455;52.390;13.028;2023-04-03T05:08:19;3.00;1.00
22578;DHT22;11455;52.390;13.028;2023-04-03T05:10:45;3.00;1.00
22578;DHT22;11455;52.390;13.028;2023-04-03T05:13:11;3.00;1.00
22578;DHT22;11455;52.390;13.028;2023-04-03T05:15:37;3.10;1.00
22578;DHT22;11455;52.390;13.028;2023-04-03T05:18:03;3.10;1.00
22578;DHT22;11455;52.390;13.028;2023-04-03T05:20:30;3.00;1.00
22578;DHT22;11455;52.390;13.028;2023-04-03T05:22:58;3.00;1.00
22578;DHT22;11455;52.390;13.028;2023-04-03T05:25:24;3.00;1.00
22578;DHT22;11455;52.390;13.028;2023-04-03T05:27:49;3.00;1.00
22578;DHT22;11455;52.390;13.028;2023-04-03T05:30:18;3.00;1.00
22578;DHT22;11455;52.390;13.028;2023-04-03T05:32:44;3.00;1.00
22578;DHT22;11455;52.390;13.028;2023-04-03T05:35:22;3.00;1.00
22578;DHT22;11455;52.390;13.028;2023-04-03T05:37:51;3.00;1.00
22578;DHT22;11455;52.390;13.028;2023-04-03T05:40:16;2.90;1.00
22578;DHT22;11455;52.390;13.028;2023-04-03T05:42:45;3.00;1.00
22578;DHT22;11455;52.390;13.028;2023-04-03T05:45:12;3.00;1.00
22578;DHT22;11455;52.390;13.028;2023-04-03T05:47:37;3.00;1.00
22578;DHT22;11455;52.390;13.028;2023-04-03T05:50:05;3.00;1.00
22578;DHT22;11455;52.390;13.028;2023-04-03T05:52:33;3.00;1.00
22578;DHT22;11455;52.390;13.028;2023-04-03T05:55:00;3.10;1.00
22578;DHT22;11455;52.390;13.028;2023-04-03T05:57:28;3.10;1.00
22578;DHT22;11455;52.390;13.028;2023-04-03T05:59:54;3.10;1.00
22578;DHT22;11455;52.390;13.028;2023-04-03T06:02:22;3.10;1.00
22578;DHT22;11455;52.390;13.028;2023-04-03T06:04:49;3.10;1.00
22578;DHT22;11455;52.390;13.028;2023-04-03T06:07:20;3.20;1.00
22578;DHT22;11455;52.390;13.028;2023-04-03T06:09:49;3.20;1.00
22578;DHT22;11455;52.390;13.028;2023-04-03T06:12:15;3.20;1.00
22578;DHT22;11455;52.390;13.028;2023-04-03T06:14:40;3.30;1.00
22578;DHT22;11455;52.390;13.028;2023-04-03T06:17:07;3.40;1.00
22578;DHT22;11455;52.390;13.028;2023-04-03T06:19:33;3.40;1.00
22578;DHT22;11455;52.390;13.028;2023-04-03T06:21:59;3.50;1.00
22578;DHT22;11455;52.390;13.028;2023-04-03T06:24:25;3.60;1.00
22578;DHT22;11455;52.390;13.028;2023-04-03T06:26:52;3.60;1.00
22578;DHT22;11455;52.390;13.028;2023-04-03T06:29:18;3.70;1.00
22578;DHT22;11455;52.390;13.028;2023-04-03T06:31:43;3.70;1.00
22578;DHT22;11455;52.390;13.028;2023-04-03T06:34:09;3.60;1.00
22578;DHT22;11455;52.390;13.028;2023-04-03T06:36:36;3.60;1.00
22578;DHT22;11455;52.390;13.028;2023-04-03T06:39:02;3.60;1.00
22578;DHT22;11455;52.390;13.028;2023-04-03T06:41:28;3.60;1.00
22578;DHT22;11455;52.390;13.028;2023-04-03T06:43:54;3.60;1.00
22578;DHT22;11455;52.390;13.028;2023-04-03T06:46:21;3.70;1.00
22578;DHT22;11455;52.390;13.028;2023-04-03T06:48:47;3.80;1.00
22578;DHT22;11455;52.390;13.028;2023-04-03T06:51:21;3.90;1.00
22578;DHT22;11455;52.390;13.028;2023-04-03T06:53:50;3.90;1.00
22578;DHT22;11455;52.390;13.028;2023-04-03T06:56:15;4.00;1.00
22578;DHT22;11455;52.390;13.028;2023-04-03T06:58:42;4.10;1.00
22578;DHT22;11455;52.390;13.028;2023-04-03T07:01:08;4.10;1.00
22578;DHT22;11455;52.390;13.028;2023-04-03T07:03:35;4.20;1.00
22578;DHT22;11455;52.390;13.028;2023-04-03T07:06:04;4.20;1.00
22578;DHT22;11455;52.390;13.028;2023-04-03T07:08:30;4.20;1.00
22578;DHT22;11455;52.390;13.028;2023-04-03T07:10:56;4.20;1.00
22578;DHT22;11455;52.390;13.028;2023-04-03T07:13:21;4.30;1.00
22578;DHT22;11455;52.390;13.028;2023-04-03T07:15:47;4.30;1.00
22578;DHT22;11455;52.390;13.028;2023-04-03T07:18:13;4.50;1.00
22578;DHT22;11455;52.390;13.028;2023-04-03T07:20:39;4.60;1.00
22578;DHT22;11455;52.390;13.028;2023-04-03T07:23:05;4.70;1.00
22578;DHT22;11455;52.390;13.028;2023-04-03T07:25:31;4.70;1.00
22578;DHT22;11455;52.390;13.028;2023-04-03T07:27:57;4.70;1.00
22578;DHT22;11455;52.390;13.028;2023-04-03T07:30:23;4.60;1.00
22578;DHT22;11455;52.390;13.028;2023-04-03T07:32:48;4.50;1.00
22578;DHT22;11455;52.390;13.028;2023-04-03T07:35:14;4.60;1.00
22578;DHT22;11455;52.390;13.028;2023-04-03T07:37:40;4.70;1.00
22578;DHT22;11455;52.390;13.028;2023-04-03T07:40:06;4.80;1.00
22578;DHT22;11455;52.390;13.028;2023-04-03T07:42:32;4.90;1.00
22578;DHT22;11455;52.390;13.028;2023-04-03T07:44:57;4.90;1.00
22578;DHT22;11455;52.390;13.028;2023-04-03T07:47:26;4.90;1.00
22578;DHT22;11455;52.390;13.028;2023-04-03T07:49:51;4.90;1.00
22578;DHT22;11455;52.390;13.028;2023-04-03T07:52:17;4.90;1.00
22578;DHT22;11455;52.390;13.028;2023-04-03T07:54:42;4.70;1.00
22578;DHT22;11455;52.390;13.028;2023-04-03T07:57:08;4.80;1.00
22578;DHT22;11455;52.390;13.028;2023-04-03T07:59:34;4.80;1.00
22578;DHT22;11455;52.390;13.028;2023-04-03T08:01:59;4.90;1.00
22578;DHT22;11455;52.390;13.028;2023-04-03T08:04:25;4.90;1.00
22578;DHT22;11455;52.390;13.028;2023-04-03T08:06:51;4.90;1.00
22578;DHT22;11455;52.390;13.028;2023-04-03T08:09:17;5.00;1.00
22578;DHT22;11455;52.390;13.028;2023-04-03T08:11:44;5.00;1.00
22578;DHT22;11455;52.390;13.028;2023-04-03T08:14:10;5.10;1.00
22578;DHT22;11455;52.390;13.028;2023-04-03T08:16:42;5.10;1.00
22578;DHT22;11455;52.390;13.028;2023-04-03T08:19:08;5.10;1.00
22578;DHT22;11455;52.390;13.028;2023-04-03T08:21:36;5.20;1.00
22578;DHT22;11455;52.390;13.028;2023-04-03T08:24:02;5.30;1.00
22578;DHT22;11455;52.390;13.028;2023-04-03T08:26:29;5.20;1.00
22578;DHT22;11455;52.390;13.028;2023-04-03T08:28:55;5.30;1.00
22578;DHT22;11455;52.390;13.028;2023-04-03T08:31:20;5.30;1.00
22578;DHT22;11455;52.390;13.028;2023-04-03T08:33:46;5.40;1.00
22578;DHT22;11455;52.390;13.028;2023-04-03T08:36:16;5.60;1.00
22578;DHT22;11455;52.390;13.028;2023-04-03T08:38:42;5.60;1.00
22578;DHT22;11455;52.390;13.028;2023-04-03T08:41:15;5.70;1.00
22578;DHT22;11455;52.390;13.028;2023-04-03T08:44:00;5.70;1.00
22578;DHT22;11455;52.390;13.028;2023-04-03T08:46:47;5.90;1.00
22578;DHT22;11455;52.390;13.028;2023-04-03T08:49:30;5.80;1.00
22578;DHT22;11455;52.390;13.028;2023-04-03T08:51:57;5.80;1.00
22578;DHT22;11455;52.390;13.028;2023-04-03T08:54:27;5.90;1.00
22578;DHT22;11455;52.390;13.028;2023-04-03T08:56:54;5.80;1.00
22578;DHT22;11455;52.390;13.028;2023-04-03T08:59:24;5.60;1.00
22578;DHT22;11455;52.390;13.028;2023-04-03T09:01:52;5.40;1.00
22578;DHT22;11455;52.390;13.028;2023-04-03T09:04:18;5.20;1.00
22578;DHT22;11455;52.390;13.028;2023-04-03T09:06:45;5.20;1.00
22578;DHT22;11455;52.390;13.028;2023-04-03T09:15:04;5.30;1.00
22578;DHT22;11455;52.390;13.028;2023-04-03T09:22:52;5.40;1.00
22578;DHT22;11455;52.390;13.028;2023-04-03T09:27:45;5.60;1.00
22578;DHT22;11455;52.390;13.028;2023-04-03T09:30:17;5.70;1.00
22578;DHT22;11455;52.390;13.028;2023-04-03T09:32:46;5.70;1.00
22578;DHT22;11455;52.390;13.028;2023-04-03T09:35:19;5.60;1.00
22578;DHT22;11455;52.390;13.028;2023-04-03T09:37:53;5.60;1.00
22578;DHT22;11455;52.390;13.028;2023-04-03T09:43:01;5.60;1.00
22578;DHT22;11455;52.390;13.028;2023-04-03T09:45:32;5.50;1.00
22578;DHT22;11455;52.390;13.028;2023-04-03T09:50:54;5.70;1.00
22578;DHT22;11455;52.390;13.028;2023-04-03T09:53:40;5.70;1.00
22578;DHT22;11455;52.390;13.028;2023-04-03T09:58:47;6.00;1.00
22578;DHT22;11455;52.390;13.028;2023-04-03T10:01:25;6.10;1.00
22578;DHT22;11455;52.390;13.028;2023-04-03T10:04:05;6.20;1.00
22578;DHT22;11455;52.390;13.028;2023-04-03T10:06:32;6.30;1.00
22578;DHT22;11455;52.390;13.028;2023-04-03T10:08:59;6.40;1.00
22578;DHT22;11455;52.390;13.028;2023-04-03T10:11:29;6.40;1.00
22578;DHT22;11455;52.390;13.028;2023-04-03T10:22:03;6.50;1.00
22578;DHT22;11455;52.390;13.028;2023-04-03T10:24:38;6.50;1.00
22578;DHT22;11455;52.390;13.028;2023-04-03T10:27:10;6.50;1.00
22578;DHT22;11455;52.390;13.028;2023-04-03T10:29:52;6.60;1.00
22578;DHT22;11455;52.390;13.028;2023-04-03T10:40:15;6.70;1.00
22578;DHT22;11455;52.390;13.028;2023-04-03T10:42:50;6.70;1.00
22578;DHT22;11455;52.390;13.028;2023-04-03T10:45:26;6.70;1.00
22578;DHT22;11455;52.390;13.028;2023-04-03T10:48:55;6.80;1.00
22578;DHT22;11455;52.390;13.028;2023-04-03T10:55:48;7.00;1.00
22578;DHT22;11455;52.390;13.028;2023-04-03T10:58:21;7.00;1.00
22578;DHT22;11455;52.390;13.028;2023-04-03T11:00:50;6.90;1.00
22578;DHT22;11455;52.390;13.028;2023-04-03T11:03:27;6.90;1.00
22578;DHT22;11455;52.390;13.028;2023-04-03T11:05:54;7.00;1.00
22578;DHT22;11455;52.390;13.028;2023-04-03T11:10:51;7.10;1.00
22578;DHT22;11455;52.390;13.028;2023-04-03T11:13:27;7.00;1.00
22578;DHT22;11455;52.390;13.028;2023-04-03T11:15:53;6.90;1.00
22578;DHT22;11455;52.390;13.028;2023-04-03T11:18:25;6.90;1.00
22578;DHT22;11455;52.390;13.028;2023-04-03T11:21:39;7.00;1.00
22578;DHT22;11455;52.390;13.028;2023-04-03T11:23:39;7.00;1.00
22578;DHT22;11455;52.390;13.028;2023-04-03T11:26:07;7.00;1.00
22578;DHT22;11455;52.390;13.028;2023-04-03T11:28:36;6.90;1.00
22578;DHT22;11455;52.390;13.028;2023-04-03T11:31:06;6.80;1.00
22578;DHT22;11455;52.390;13.028;2023-04-03T11:33:40;6.70;1.00
22578;DHT22;11455;52.390;13.028;2023-04-03T11:36:12;6.50;1.00
22578;DHT22;11455;52.390;13.028;2023-04-03T11:38:43;6.50;1.00
22578;DHT22;11455;52.390;13.028;2023-04-03T11:41:11;6.60;1.00
22578;DHT22;11455;52.390;13.028;2023-04-03T11:43:43;6.80;1.00
22578;DHT22;11455;52.390;13.028;2023-04-03T11:46:20;6.80;1.00
22578;DHT22;11455;52.390;13.028;2023-04-03T11:48:47;6.90;1.00
22578;DHT22;11455;52.390;13.028;2023-04-03T11:53:41;7.30;1.00
22578;DHT22;11455;52.390;13.028;2023-04-03T12:01:49;7.60;1.00
22578;DHT22;11455;52.390;13.028;2023-04-03T12:04:15;7.50;1.00
22578;DHT22;11455;52.390;13.028;2023-04-03T12:06:47;7.50;1.00
22578;DHT22;11455;52.390;13.028;2023-04-03T12:11:59;7.50;1.00
22578;DHT22;11455;52.390;13.028;2023-04-03T12:14:25;7.40;1.00
22578;DHT22;11455;52.390;13.028;2023-04-03T12:16:52;7.20;1.00
22578;DHT22;11455;52.390;13.028;2023-04-03T12:19:37;7.10;1.00
22578;DHT22;11455;52.390;13.028;2023-04-03T12:22:09;7.20;1.00
22578;DHT22;11455;52.390;13.028;2023-04-03T12:24:36;7.40;1.00
22578;DHT22;11455;52.390;13.028;2023-04-03T12:32:26;7.30;1.00
22578;DHT22;11455;52.390;13.028;2023-04-03T12:43:02;7.20;1.00
22578;DHT22;11455;52.390;13.028;2023-04-03T12:45:39;7.10;1.00
22578;DHT22;11455;52.390;13.028;2023-04-03T12:48:08;7.00;1.00
22578;DHT22;11455;52.390;13.028;2023-04-03T12:50:37;7.10;1.00
22578;DHT22;11455;52.390;13.028;2023-04-03T12:53:06;7.30;1.00
22578;DHT22;11455;52.390;13.028;2023-04-03T12:55:39;7.20;1.00
22578;DHT22;11455;52.390;13.028;2023-04-03T13:01:04;7.10;1.00
22578;DHT22;11455;52.390;13.028;2023-04-03T13:03:34;7.10;1.00
22578;DHT22;11455;52.390;13.028;2023-04-03T13:06:01;7.10;1.00
22578;DHT22;11455;52.390;13.028;2023-04-03T13:08:28;7.30;1.00
22578;DHT22;11455;52.390;13.028;2023-04-03T13:11:15;7.30;1.00
22578;DHT22;11455;52.390;13.028;2023-04-03T13:13:40;7.30;1.00
22578;DHT22;11455;52.390;13.028;2023-04-03T13:16:18;7.30;1.00
22578;DHT22;11455;52.390;13.028;2023-04-03T13:18:44;7.30;1.00
22578;DHT22;11455;52.390;13.028;2023-04-03T13:21:17;7.20;1.00
22578;DHT22;11455;52.390;13.028;2023-04-03T13:23:45;7.10;1.00
22578;DHT22;11455;52.390;13.028;2023-04-03T13:26:11;7.10;1.00
22578;DHT22;11455;52.390;13.028;2023-04-03T13:28:38;7.10;1.00
22578;DHT22;11455;52.390;13.028;2023-04-03T13:31:09;7.10;1.00
22578;DHT22;11455;52.390;13.028;2023-04-03T13:33:51;7.00;1.00
22578;DHT22;11455;52.390;13.028;2023-04-03T13:36:21;7.00;1.00
22578;DHT22;11455;52.390;13.028;2023-04-03T13:44:14;7.00;1.00
22578;DHT22;11455;52.390;13.028;2023-04-03T13:46:40;7.00;1.00
22578;DHT22;11455;52.390;13.028;2023-04-03T13:49:17;7.00;1.00
22578;DHT22;11455;52.390;13.028;2023-04-03T13:51:43;7.10;1.00
22578;DHT22;11455;52.390;13.028;2023-04-03T13:54:20;7.20;1.00
22578;DHT22;11455;52.390;13.028;2023-04-03T13:56:52;7.10;1.00
22578;DHT22;11455;52.390;13.028;2023-04-03T14:01:47;7.10;1.00
22578;DHT22;11455;52.390;13.028;2023-04-03T14:04:20;7.00;1.00
22578;DHT22;11455;52.390;13.028;2023-04-03T14:06:47;6.90;1.00
22578;DHT22;11455;52.390;13.028;2023-04-03T14:09:12;6.90;1.00
22578;DHT22;11455;52.390;13.028;2023-04-03T14:11:38;6.90;1.00
22578;DHT22;11455;52.390;13.028;2023-04-03T14:14:09;6.90;1.00
22578;DHT22;11455;52.390;13.028;2023-04-03T14:16:38;7.00;1.00
22578;DHT22;11455;52.390;13.028;2023-04-03T14:19:04;7.00;1.00
22578;DHT22;11455;52.390;13.028;2023-04-03T14:21:30;6.90;1.00
22578;DHT22;11455;52.390;13.028;2023-04-03T14:23:55;7.00;1.00
22578;DHT22;11455;52.390;13.028;2023-04-03T14:26:23;7.00;1.00
22578;DHT22;11455;52.390;13.028;2023-04-03T14:28:50;7.10;1.00
22578;DHT22;11455;52.390;13.028;2023-04-03T14:31:17;7.20;1.00
22578;DHT22;11455;52.390;13.028;2023-04-03T14:33:43;7.30;1.00
22578;DHT22;11455;52.390;13.028;2023-04-03T14:38:37;7.30;1.00
22578;DHT22;11455;52.390;13.028;2023-04-03T14:41:03;7.20;1.00
22578;DHT22;11455;52.390;13.028;2023-04-03T14:43:28;7.10;1.00
22578;DHT22;11455;52.390;13.028;2023-04-03T14:45:54;7.00;1.00
22578;DHT22;11455;52.390;13.028;2023-04-03T14:48:22;6.90;1.00
22578;DHT22;11455;52.390;13.028;2023-04-03T14:50:48;6.90;1.00
22578;DHT22;11455;52.390;13.028;2023-04-03T14:53:14;6.70;1.00
22578;DHT22;11455;52.390;13.028;2023-04-03T14:55:42;6.60;1.00
22578;DHT22;11455;52.390;13.028;2023-04-03T14:58:11;6.50;1.00
22578;DHT22;11455;52.390;13.028;2023-04-03T15:00:37;6.60;1.00
22578;DHT22;11455;52.390;13.028;2023-04-03T15:03:03;6.60;1.00
22578;DHT22;11455;52.390;13.028;2023-04-03T15:05:29;6.60;1.00
22578;DHT22;11455;52.390;13.028;2023-04-03T15:07:55;6.50;1.00
22578;DHT22;11455;52.390;13.028;2023-04-03T15:10:25;6.50;1.00
22578;DHT22;11455;52.390;13.028;2023-04-03T15:12:51;6.50;1.00
22578;DHT22;11455;52.390;13.028;2023-04-03T15:15:18;6.50;1.00
22578;DHT22;11455;52.390;13.028;2023-04-03T15:17:45;6.50;1.00
22578;DHT22;11455;52.390;13.028;2023-04-03T15:20:14;6.40;1.00
22578;DHT22;11455;52.390;13.028;2023-04-03T15:22:41;6.40;1.00
22578;DHT22;11455;52.390;13.028;2023-04-03T15:25:06;6.40;1.00
22578;DHT22;11455;52.390;13.028;2023-04-03T15:27:32;6.40;1.00
22578;DHT22;11455;52.390;13.028;2023-04-03T15:29:58;6.50;1.00
22578;DHT22;11455;52.390;13.028;2023-04-03T15:32:24;6.70;1.00
22578;DHT22;11455;52.390;13.028;2023-04-03T15:34:49;6.70;1.00
22578;DHT22;11455;52.390;13.028;2023-04-03T15:37:15;7.00;1.00
22578;DHT22;11455;52.390;13.028;2023-04-03T15:39:41;7.10;1.00
22578;DHT22;11455;52.390;13.028;2023-04-03T15:42:06;7.00;1.00
22578;DHT22;11455;52.390;13.028;2023-04-03T15:44:35;6.90;1.00
22578;DHT22;11455;52.390;13.028;2023-04-03T15:47:01;7.00;1.00
22578;DHT22;11455;52.390;13.028;2023-04-03T15:49:30;6.90;1.00
22578;DHT22;11455;52.390;13.028;2023-04-03T15:51:55;6.90;1.00
22578;DHT22;11455;52.390;13.028;2023-04-03T15:54:21;6.90;1.00
22578;DHT22;11455;52.390;13.028;2023-04-03T15:56:49;6.90;1.00
22578;DHT22;11455;52.390;13.028;2023-04-03T15:59:15;6.80;1.00
22578;DHT22;11455;52.390;13.028;2023-04-03T16:01:40;6.60;1.00
22578;DHT22;11455;52.390;13.028;2023-04-03T16:04:07;6.60;1.00
22578;DHT22;11455;52.390;13.028;2023-04-03T16:06:35;6.50;1.00
22578;DHT22;11455;52.390;13.028;2023-04-03T16:09:01;6.50;1.00
22578;DHT22;11455;52.390;13.028;2023-04-03T16:11:27;6.50;1.00
22578;DHT22;11455;52.390;13.028;2023-04-03T16:13:53;6.50;1.00
22578;DHT22;11455;52.390;13.028;2023-04-03T16:16:19;6.60;1.00
22578;DHT22;11455;52.390;13.028;2023-04-03T16:18:45;6.60;1.00
22578;DHT22;11455;52.390;13.028;2023-04-03T16:21:12;6.60;1.00
22578;DHT22;11455;52.390;13.028;2023-04-03T16:23:39;6.60;1.00
22578;DHT22;11455;52.390;13.028;2023-04-03T16:26:05;6.60;1.00
22578;DHT22;11455;52.390;13.028;2023-04-03T16:28:31;6.70;1.00
22578;DHT22;11455;52.390;13.028;2023-04-03T16:30:59;6.70;1.00
22578;DHT22;11455;52.390;13.028;2023-04-03T16:33:25;6.70;1.00
22578;DHT22;11455;52.390;13.028;2023-04-03T16:35:51;6.70;1.00
22578;DHT22;11455;52.390;13.028;2023-04-03T16:38:17;6.60;1.00
22578;DHT22;11455;52.390;13.028;2023-04-03T16:40:44;6.40;1.00
22578;DHT22;11455;52.390;13.028;2023-04-03T16:43:10;6.30;1.00
22578;DHT22;11455;52.390;13.028;2023-04-03T16:45:36;6.30;1.00
22578;DHT22;11455;52.390;13.028;2023-04-03T16:48:02;6.40;1.00
22578;DHT22;11455;52.390;13.028;2023-04-03T16:50:28;6.40;1.00
22578;DHT22;11455;52.390;13.028;2023-04-03T16:52:53;6.50;1.00
22578;DHT22;11455;52.390;13.028;2023-04-03T16:55:19;6.40;1.00
22578;DHT22;11455;52.390;13.028;2023-04-03T16:57:46;6.30;1.00
22578;DHT22;11455;52.390;13.028;2023-04-03T17:00:12;6.30;1.00
22578;DHT22;11455;52.390;13.028;2023-04-03T17:02:38;6.20;1.00
22578;DHT22;11455;52.390;13.028;2023-04-03T17:05:04;6.30;1.00
22578;DHT22;11455;52.390;13.028;2023-04-03T17:07:30;6.40;1.00
22578;DHT22;11455;52.390;13.028;2023-04-03T17:09:56;6.50;1.00
22578;DHT22;11455;52.390;13.028;2023-04-03T17:12:22;6.50;1.00
22578;DHT22;11455;52.390;13.028;2023-04-03T17:14:48;6.40;1.00
22578;DHT22;11455;52.390;13.028;2023-04-03T17:17:15;6.30;1.00